AIGUAFREDA (Vallès Oriental)





Hora UTC 16:20
Temperatura 16.2 ºC
Suelo 15 cm 18.8 ºC
Humedad 55.8 %
Presión 1011.6 hPa
Pluja 0.0 mm
Velocidad viento 15.0 km/h
Dirección viento SSE
Radiación solar 376.1 W/m²

Datos diarios 2024-04-16



Hora UTC (invierno +1h; verano +2h)
Temperatura (ºC) Humedad (%) Presión (hPa) Velocidad viento (km/h) Precipitación (mm) Radiación solar (W/m²)
Hora UTC Aire Suelo 15 cm Humedad Presión Vel. Dir. Vel. Max Dir. Intent. máx 5 min. Rad. Sol.
00:05 11.0 12.5 76.2 1016.8 0.0 NNE 0.0 WSW 0.0 1.8
00:10 10.9 12.4 76.8 1016.7 0.1 WSW 3.4 WSW 0.0 1.9
00:15 10.8 12.3 77.2 1016.5 0.3 W 3.4 W 0.0 1.5
00:20 10.7 12.2 77.4 1016.5 0.3 WSW 3.4 W 0.0 1.8
00:25 10.6 12.2 77.4 1016.4 0.4 NW 3.4 NW 0.0 1.4
00:30 10.6 12.3 77.6 1016.5 0.0 WNW 3.4 WNW 0.0 1.8
00:35 10.6 12.3 77.4 1016.5 0.5 NW 3.4 NW 0.0 1.1
00:40 10.5 12.3 77.5 1016.4 0.0 NNE 0.0 NW 0.0 2.2
00:45 10.4 12.2 77.9 1016.3 0.3 NW 6.1 WNW 0.0 1.1
00:50 10.4 12.1 78.5 1016.3 2.0 N 6.1 NW 0.0 2.2
00:55 10.3 12.0 79.0 1016.3 0.5 NNE 3.4 NNE 0.0 1.5
01:00 10.3 11.9 79.4 1016.3 0.0 NNE 0.0 N 0.0 2.4
01:05 10.2 11.7 80.0 1016.1 0.0 NNE 0.0 N 0.0 2.1
01:10 10.1 11.5 80.2 1016.1 0.0 NNE 0.0 N 0.0 1.8
01:15 10.0 11.3 80.6 1016.1 0.1 W 3.4 WSW 0.0 1.9
01:20 9.9 11.2 81.4 1016.1 0.0 NNE 0.0 W 0.0 1.9
01:25 9.8 11.0 81.8 1016.0 0.2 ESE 3.4 ESE 0.0 2.1
01:30 9.7 10.9 82.3 1015.9 0.2 ESE 3.4 ESE 0.0 1.9
01:35 9.7 10.8 82.5 1015.8 0.0 NNE 0.0 NW 0.0 2.0
01:40 9.6 10.8 82.7 1015.7 0.0 NW 3.4 NW 0.0 2.0
01:45 9.5 10.7 82.8 1015.7 0.5 NE 6.1 NE 0.0 1.9
01:50 9.4 10.6 83.2 1015.6 0.8 NE 6.1 NE 0.0 2.0
01:55 9.4 10.5 83.6 1015.6 0.0 NNE 3.4 NNE 0.0 2.2
02:00 9.4 10.4 83.7 1015.6 0.0 NNE 0.0 WSW 0.0 2.2
02:05 9.3 10.4 84.0 1015.5 0.7 N 3.4 NW 0.0 2.2
02:10 9.3 10.4 84.2 1015.5 0.5 NW 3.4 NW 0.0 2.1
02:15 9.2 10.3 84.3 1015.5 0.0 NNE 0.0 NNW 0.0 2.4
02:20 9.2 10.3 84.5 1015.5 0.2 E 3.4 E 0.0 2.3
02:25 9.1 10.3 84.7 1015.4 0.1 ENE 3.4 ENE 0.0 2.3
02:30 9.1 10.2 85.1 1015.5 0.6 WSW 6.1 WSW 0.0 2.5
02:35 9.0 10.1 85.3 1015.4 0.0 NNE 0.0 WSW 0.0 2.1
02:40 8.9 10.0 85.7 1015.3 0.0 NNE 0.0 WSW 0.0 2.1
02:45 8.8 9.9 86.1 1015.3 0.0 NNE 0.0 WSW 0.0 2.2
02:50 8.8 9.8 86.5 1015.2 0.0 NNE 0.0 WSW 0.0 1.9
02:55 8.7 9.8 86.9 1015.2 0.0 NNE 0.0 NNE 0.0 2.5
03:00 8.7 9.8 87.0 1015.4 0.0 NNE 0.0 NNE 0.0 2.2
03:05 8.7 9.7 87.1 1015.3 0.0 NNE 0.0 WNW 0.0 2.3
03:10 8.7 9.7 87.3 1015.3 0.0 NW 3.4 NW 0.0 2.2
03:15 8.7 9.7 87.3 1015.3 0.1 NW 3.4 NW 0.0 1.9
03:20 8.6 9.7 87.4 1015.3 0.0 NNE 0.0 NNE 0.0 2.0
03:25 8.6 9.6 87.4 1015.4 0.0 NNE 0.0 N 0.0 1.2
03:30 8.5 9.5 87.3 1015.4 0.0 NNE 0.0 SW 0.0 2.0
03:35 8.4 9.4 87.7 1015.3 0.0 NNE 0.0 SW 0.0 1.4
03:40 8.3 9.3 88.0 1015.3 0.0 NNE 0.0 SW 0.0 2.6
03:45 8.3 9.3 88.2 1015.2 0.3 NNE 3.4 NE 0.0 2.5
03:50 8.2 9.3 88.4 1015.1 0.1 NNE 3.4 NNE 0.0 2.3
03:55 8.2 9.3 88.6 1015.1 0.0 NNE 0.0 NNE 0.0 1.7
04:00 8.2 9.2 88.7 1015.0 0.0 NNE 0.0 NNE 0.0 1.7
04:05 8.1 9.1 88.7 1014.8 0.0 NNE 0.0 NNE 0.0 1.6
04:10 8.1 9.2 89.0 1014.7 0.3 NNE 3.4 N 0.0 1.6
04:15 8.1 9.2 89.2 1014.7 0.0 NE 3.4 NE 0.0 1.7
04:20 8.0 9.1 89.2 1014.7 0.1 W 3.4 NE 0.0 1.8
04:25 8.0 9.2 89.3 1014.8 1.8 NW 6.1 NNW 0.0 1.6
04:30 8.1 9.4 89.4 1014.7 1.7 NNW 8.8 NW 0.0 1.8
04:35 8.2 9.9 88.5 1014.8 3.6 N 11.5 NW 0.0 1.8
04:40 8.4 10.5 87.2 1014.8 1.3 NW 6.1 NW 0.0 1.6
04:45 8.7 11.0 85.9 1014.6 3.9 SSE 8.8 SE 0.0 1.6
04:50 8.9 11.4 85.1 1014.4 0.4 SE 6.1 SE 0.0 1.7
04:55 9.1 11.8 84.3 1014.3 1.9 W 6.1 W 0.0 1.9
05:00 9.2 12.0 83.3 1014.6 4.0 NNW 8.8 NW 0.0 2.1
05:05 9.3 12.2 82.1 1014.7 4.8 NNW 8.8 NNW 0.0 2.6
05:10 9.4 12.2 81.7 1014.7 1.5 N 6.1 NE 0.0 2.9
05:15 9.5 12.4 81.4 1014.8 0.0 NNE 0.0 NW 0.0 3.7
05:20 9.7 12.6 80.7 1015.0 1.4 N 6.1 E 0.0 4.0
05:25 9.8 12.7 79.2 1015.0 2.1 NNW 8.8 WSW 0.0 5.1
05:30 9.9 12.8 78.4 1014.9 0.3 NE 6.1 ENE 0.0 7.7
05:35 10.0 12.8 77.9 1014.8 2.1 NNE 8.8 NW 0.0 14.1
05:40 10.0 12.8 77.5 1014.7 0.0 NNE 0.0 NNE 0.0 21.8
05:45 10.1 12.8 77.3 1014.7 0.5 NNE 3.4 NNE 0.0 30.8
05:50 10.2 12.9 77.6 1014.8 0.0 NNE 0.0 N 0.0 34.1
05:55 10.2 12.9 76.8 1014.5 0.3 SSE 3.4 S 0.0 30.5
06:00 10.2 12.8 77.1 1014.6 0.2 NE 3.4 NNE 0.0 36.6
06:05 10.2 12.8 77.5 1014.5 0.1 NE 3.4 N 0.0 37.5
06:10 10.3 12.9 77.3 1014.6 2.0 NNE 8.8 NNE 0.0 58.6
06:15 10.5 13.2 76.3 1014.6 3.2 NE 8.8 NE 0.0 65.5
06:20 10.7 13.4 74.9 1014.7 4.9 NE 8.8 NE 0.0 61.6
06:25 10.9 13.6 73.5 1014.8 4.2 NE 8.8 NE 0.0 64.0
06:30 11.0 13.9 73.4 1014.9 1.7 E 8.8 NE 0.0 81.3
06:35 11.2 14.2 72.8 1014.8 1.1 E 8.8 ENE 0.0 86.5
06:40 11.3 14.3 72.8 1014.8 0.8 E 6.1 ESE 0.0 86.3
06:45 11.4 14.4 72.5 1014.6 0.3 ESE 3.4 ESE 0.0 87.5
06:50 11.5 14.5 72.6 1014.7 1.1 E 6.1 ENE 0.0 95.5
06:55 11.7 14.7 71.8 1014.6 0.4 NNE 6.1 NNE 0.0 112.0
07:00 11.9 15.0 71.1 1014.6 1.9 NE 6.1 NNE 0.0 112.9
07:05 12.1 15.2 70.9 1014.6 3.0 NNE 8.8 N 0.0 137.8
07:10 12.3 15.5 70.3 1014.5 0.9 NE 6.1 ENE 0.0 149.3
07:15 12.4 15.7 70.1 1014.4 3.1 NE 8.8 NNE 0.0 205.4
07:20 12.7 16.0 68.9 1014.4 3.9 NE 8.8 E 0.0 175.7
07:25 12.8 16.1 66.7 1014.3 3.1 NE 8.8 NNE 0.0 177.1
07:30 12.9 16.2 67.3 1014.3 3.6 NE 8.8 NE 0.0 171.8
07:35 13.0 16.4 66.0 1014.5 1.0 SE 6.1 SE 0.0 173.4
07:40 13.0 16.5 64.6 1014.4 1.3 NNW 8.8 NNW 0.0 158.3
07:45 13.0 16.5 64.3 1014.4 4.0 NNE 8.8 NNE 0.0 154.9
07:50 13.0 16.6 64.2 1014.4 1.5 NNE 6.1 NE 0.0 157.4
07:55 13.2 16.7 63.9 1014.4 2.1 SSW 6.1 SW 0.0 153.5
08:00 13.3 16.8 63.9 1014.5 2.2 N 6.1 N 0.0 164.9
08:05 13.4 16.9 63.5 1014.3 0.4 ENE 3.4 NE 0.0 178.5
08:10 13.4 17.2 63.6 1014.4 0.6 NE 6.1 ENE 0.0 198.3
08:15 13.7 17.5 63.0 1014.3 2.3 NE 6.1 NE 0.0 233.5
08:20 14.0 17.6 62.0 1014.5 0.0 WNW 3.4 WNW 0.0 225.8
08:25 14.0 17.8 61.0 1014.4 2.8 WNW 8.8 WNW 0.0 222.2
08:30 14.0 17.8 61.7 1014.4 1.2 NNE 6.1 SW 0.0 218.2
08:35 14.2 17.8 60.8 1014.4 1.6 NNE 8.8 N 0.0 239.5
08:40 14.2 18.0 61.0 1014.4 0.0 S 3.4 S 0.0 280.4
08:45 14.5 18.3 60.1 1014.4 1.3 E 6.1 ESE 0.0 306.9
08:50 14.7 18.6 60.2 1014.3 3.6 ESE 6.1 SE 0.0 387.7
08:55 14.9 19.3 59.3 1014.3 2.8 SE 6.1 ESE 0.0 621.5
09:00 15.4 19.7 58.7 1014.1 3.2 S 8.8 S 0.0 409.6
09:05 15.8 20.7 57.4 1014.0 1.9 ESE 6.1 SE 0.0 518.0
09:10 16.1 20.7 56.7 1014.2 4.5 SE 8.8 SSE 0.0 557.2
09:15 16.5 22.1 56.2 1014.1 4.6 ESE 11.5 ESE 0.0 661.8
09:20 16.6 22.4 55.1 1014.1 4.1 E 11.5 SE 0.0 646.6
09:25 17.0 22.8 54.1 1014.2 3.3 SSE 11.5 SSE 0.0 693.5
09:30 17.1 23.1 54.2 1014.0 4.4 SE 14.2 SE 0.0 643.7
09:35 17.3 23.0 53.8 1014.1 6.3 SE 14.2 SSE 0.0 711.4
09:40 17.3 23.6 54.9 1014.1 6.4 SE 14.2 SSE 0.0 729.0
09:45 17.6 23.9 53.9 1013.9 7.7 SE 16.9 S 0.0 726.8
09:50 17.4 23.1 54.5 1014.0 9.1 SE 19.6 SSE 0.0 665.1
09:55 17.4 23.0 55.2 1014.0 7.9 SE 19.6 SE 0.0 746.2
10:00 17.5 23.4 54.8 1013.7 8.1 SE 16.9 SSE 0.0 741.8
10:05 17.8 23.9 54.4 1013.8 9.1 SSE 19.6 SE 0.0 758.1
10:10 17.6 23.7 54.4 1013.7 8.3 S 16.9 SSE 0.0 747.9
10:15 17.8 23.7 53.8 1013.7 8.5 S 22.3 SE 0.0 741.5
10:20 18.0 23.9 52.7 1013.7 10.9 SSE 22.3 ESE 0.0 786.4
10:25 18.2 24.0 52.5 1013.7 10.4 SE 22.3 SSE 0.0 798.3
10:30 18.2 24.0 51.7 1013.6 10.4 SE 19.6 SE 0.0 805.0
10:35 18.2 24.1 52.0 1013.5 11.0 SE 22.3 SSE 0.0 825.0
10:40 18.6 24.5 50.8 1013.4 12.2 SSE 22.3 SE 0.0 842.0
10:45 18.9 24.7 50.6 1013.4 10.0 SSE 19.6 S 0.0 793.0
10:50 18.7 24.2 50.1 1013.5 12.4 SSE 22.3 SE 0.0 854.0
10:55 18.8 25.0 50.4 1013.4 10.0 SSE 22.3 SE 0.0 909.0
11:00 19.1 25.1 49.3 1013.4 11.9 SSE 22.3 SSE 0.0 928.0
11:05 19.5 25.7 49.1 1013.3 8.9 SSE 22.3 SSE 0.0 839.0
11:10 19.1 24.9 48.7 1013.2 12.3 SSE 27.7 SSE 0.0 803.0
11:15 18.9 24.8 49.8 1013.3 13.1 SSE 22.3 SSE 0.0 874.0
11:20 19.1 24.9 49.2 1013.1 9.6 SE 19.6 S 0.0 859.0
11:25 19.4 25.2 48.7 1013.1 9.8 SE 19.6 SE 0.0 876.0
11:30 19.7 26.2 47.9 1013.1 9.6 SSE 19.6 SSW 0.0 882.0
11:35 19.7 26.2 47.8 1013.1 10.0 SE 19.6 SSE 0.0 894.0
11:40 19.9 26.4 47.4 1012.9 10.4 SSE 19.6 S 0.0 926.0
11:45 19.8 25.7 47.6 1012.8 13.2 SSE 25.0 S 0.0 906.0
11:50 19.8 25.6 47.5 1012.8 9.1 SSE 19.6 ESE 0.0 892.0
11:55 20.2 26.8 46.2 1012.6 9.2 SSE 22.3 S 0.0 897.0
12:00 20.1 26.3 46.0 1012.5 11.3 SE 22.3 SE 0.0 869.0
12:05 20.2 25.9 45.4 1012.5 13.8 SSE 27.7 SSE 0.0 871.0
12:10 19.7 25.5 46.5 1012.3 10.1 SSE 19.6 SE 0.0 866.0
12:15 20.1 26.0 45.4 1012.4 13.2 SSE 25.0 SSE 0.0 871.0
12:20 20.1 25.6 45.0 1012.6 9.5 SE 19.6 SE 0.0 640.1
12:25 19.7 23.2 46.3 1012.4 11.8 SSE 25.0 ESE 0.0 241.7
12:30 19.7 23.6 47.5 1012.4 11.1 SSE 19.6 SE 0.0 700.8
12:35 20.0 24.2 46.9 1012.4 12.0 SSE 22.3 ESE 0.0 711.4
12:40 19.7 23.9 48.9 1012.5 15.5 SSE 25.0 SSE 0.0 650.3
12:45 19.3 23.1 50.5 1012.3 12.8 SSE 25.0 SE 0.0 639.8
12:50 19.7 24.7 50.2 1012.3 12.1 S 27.7 S 0.0 835.0
12:55 19.5 24.4 51.2 1012.3 11.2 SSE 19.6 SSE 0.0 661.3
13:00 19.6 24.4 50.9 1012.4 12.2 SSE 22.3 SSE 0.0 817.0
13:05 19.4 23.6 51.6 1012.3 14.3 SE 27.7 SE 0.0 610.1
13:10 19.2 24.0 52.3 1012.2 13.7 SSE 25.0 SE 0.0 815.0
13:15 19.3 24.5 52.3 1012.1 10.2 SSE 22.3 SE 0.0 809.0
13:20 19.6 24.6 51.2 1012.2 13.4 SSE 25.0 SSE 0.0 796.6
13:25 19.5 24.9 51.9 1012.2 10.9 SSE 27.7 SE 0.0 782.8
13:30 19.6 24.8 51.7 1012.0 12.5 SSE 25.0 SE 0.0 783.1
13:35 19.4 24.3 52.5 1012.1 11.7 SSE 22.3 SE 0.0 777.4
13:40 19.1 23.9 53.1 1011.9 16.4 SSE 27.7 SSE 0.0 747.9
13:45 18.5 23.1 55.1 1012.1 16.4 SSE 30.4 S 0.0 726.6
13:50 18.3 22.5 55.6 1012.0 11.2 SSE 19.6 SSE 0.0 495.6
13:55 18.8 23.0 55.2 1011.8 11.0 SSE 22.3 SSE 0.0 545.1
14:00 18.6 23.2 56.0 1011.9 15.1 SSE 27.7 SSE 0.0 732.9
14:05 18.3 22.6 56.1 1012.0 14.7 SSE 27.7 SE 0.0 533.7
14:10 18.2 22.2 57.5 1011.9 15.0 SSE 30.4 SSE 0.0 641.6
14:15 18.2 22.6 57.5 1011.9 13.7 SSE 25.0 SSE 0.0 607.0
14:20 18.5 22.6 56.6 1011.8 12.1 SSE 25.0 SSE 0.0 683.4
14:25 18.7 23.6 55.8 1011.7 10.2 SSE 22.3 SSE 0.0 675.4
14:30 18.7 23.3 55.1 1011.6 14.3 S 25.0 SSE 0.0 664.6
14:35 18.6 23.4 54.6 1011.7 12.2 SSE 22.3 SSE 0.0 656.8
14:40 18.7 23.5 54.1 1011.6 11.4 SSE 22.3 SSE 0.0 646.0
14:45 18.5 22.9 54.7 1011.5 15.3 SSE 25.0 SSE 0.0 633.1
14:50 18.2 22.6 54.4 1011.7 15.2 SSE 25.0 SSE 0.0 580.0
14:55 18.4 22.9 54.1 1011.3 10.4 S 22.3 SSE 0.0 610.3
15:00 18.6 22.8 52.5 1011.4 14.8 SSE 27.7 S 0.0 601.0
15:05 18.1 21.9 53.0 1011.5 16.6 SSE 27.7 SSE 0.0 588.3
15:10 17.8 21.8 53.8 1011.4 13.1 SSE 25.0 SSW 0.0 574.5
15:15 18.2 22.4 52.9 1011.4 11.3 SSE 27.7 SSE 0.0 561.9
15:20 18.3 22.1 52.2 1011.4 12.7 SSE 27.7 SSE 0.0 550.9
15:25 18.0 21.6 52.9 1011.5 16.5 SSE 30.4 SE 0.0 538.2
15:30 17.7 21.4 53.5 1011.4 13.9 S 27.7 SSE 0.0 524.5
15:35 17.5 21.0 53.8 1011.5 16.5 SSE 27.7 S 0.0 509.5
15:40 17.5 20.9 53.7 1011.5 15.7 SSE 33.1 SSE 0.0 494.2
15:45 17.0 20.3 54.5 1011.6 16.9 SSE 30.4 SSE 0.0 479.5
15:50 17.4 20.7 53.8 1011.4 10.1 S 27.7 S 0.0 464.5
15:55 17.6 21.0 52.4 1011.4 11.8 S 25.0 SE 0.0 451.9
16:00 17.5 20.7 52.0 1011.4 14.6 S 30.4 SSE 0.0 438.3
16:05 16.9 19.8 53.4 1011.6 17.0 SSE 27.7 S 0.0 423.9
16:10 16.6 19.3 54.5 1011.6 13.6 S 30.4 S 0.0 410.5
16:15 16.6 19.4 54.4 1011.6 16.5 SSE 27.7 SE 0.0 394.1
16:20 16.2 18.8 55.8 1011.6 15.0 SSE 30.4 SSE 0.0 376.1
Máxima 20.4 26.8 89.4 1016.8 17.0 SSE 33.1 SSE 0.0 928.0
Mínima 8.0 9.1 45.0 1011.3
Total 0.0